sensor_id;sensor_type;location;lat;lon;timestamp;temperature;humidity
11497;DHT22;5805;51.542;7.230;2023-07-08T00:00:10;21.80;92.00
11497;DHT22;5805;51.542;7.230;2023-07-08T00:02:36;21.80;92.00
11497;DHT22;5805;51.542;7.230;2023-07-08T00:05:02;21.90;92.00
11497;DHT22;5805;51.542;7.230;2023-07-08T00:07:29;21.80;92.00
11497;DHT22;5805;51.542;7.230;2023-07-08T00:09:54;21.80;92.20
11497;DHT22;5805;51.542;7.230;2023-07-08T00:12:20;21.80;92.30
11497;DHT22;5805;51.542;7.230;2023-07-08T00:14:46;21.80;92.40
11497;DHT22;5805;51.542;7.230;2023-07-08T00:17:12;21.80;92.50
11497;DHT22;5805;51.542;7.230;2023-07-08T00:19:38;21.90;92.70
11497;DHT22;5805;51.542;7.230;2023-07-08T00:22:10;21.90;92.80
11497;DHT22;5805;51.542;7.230;2023-07-08T00:24:38;22.00;92.70
11497;DHT22;5805;51.542;7.230;2023-07-08T00:27:04;22.00;92.40
11497;DHT22;5805;51.542;7.230;2023-07-08T00:29:29;22.00;92.60
11497;DHT22;5805;51.542;7.230;2023-07-08T00:31:55;22.00;92.50
11497;DHT22;5805;51.542;7.230;2023-07-08T00:34:21;22.10;92.20
11497;DHT22;5805;51.542;7.230;2023-07-08T00:36:46;22.10;92.60
11497;DHT22;5805;51.542;7.230;2023-07-08T00:39:13;22.10;92.60
11497;DHT22;5805;51.542;7.230;2023-07-08T00:41:42;22.10;92.20
11497;DHT22;5805;51.542;7.230;2023-07-08T00:44:10;22.10;91.90
11497;DHT22;5805;51.542;7.230;2023-07-08T00:46:48;22.00;92.00
11497;DHT22;5805;51.542;7.230;2023-07-08T00:49:25;22.10;92.30
11497;DHT22;5805;51.542;7.230;2023-07-08T00:51:52;22.00;92.00
11497;DHT22;5805;51.542;7.230;2023-07-08T00:54:19;22.00;91.90
11497;DHT22;5805;51.542;7.230;2023-07-08T00:56:49;22.00;92.20
11497;DHT22;5805;51.542;7.230;2023-07-08T00:59:19;22.00;92.70
11497;DHT22;5805;51.542;7.230;2023-07-08T01:01:46;22.10;92.60
11497;DHT22;5805;51.542;7.230;2023-07-08T01:04:15;22.00;91.80
11497;DHT22;5805;51.542;7.230;2023-07-08T01:06:45;21.90;92.00
11497;DHT22;5805;51.542;7.230;2023-07-08T01:09:14;21.90;92.20
11497;DHT22;5805;51.542;7.230;2023-07-08T01:11:41;21.80;92.20
11497;DHT22;5805;51.542;7.230;2023-07-08T01:14:10;21.70;92.50
11497;DHT22;5805;51.542;7.230;2023-07-08T01:16:38;21.60;92.90
11497;DHT22;5805;51.542;7.230;2023-07-08T01:19:04;21.70;92.80
11497;DHT22;5805;51.542;7.230;2023-07-08T01:21:34;21.70;92.80
11497;DHT22;5805;51.542;7.230;2023-07-08T01:24:04;21.70;92.90
11497;DHT22;5805;51.542;7.230;2023-07-08T01:26:31;21.60;92.90
11497;DHT22;5805;51.542;7.230;2023-07-08T01:28:58;21.60;93.00
11497;DHT22;5805;51.542;7.230;2023-07-08T01:31:24;21.50;93.20
11497;DHT22;5805;51.542;7.230;2023-07-08T01:33:52;21.50;93.30
11497;DHT22;5805;51.542;7.230;2023-07-08T01:36:18;21.50;93.60
11497;DHT22;5805;51.542;7.230;2023-07-08T01:38:45;21.40;93.80
11497;DHT22;5805;51.542;7.230;2023-07-08T01:41:14;21.30;94.10
11497;DHT22;5805;51.542;7.230;2023-07-08T01:43:40;21.30;94.50
11497;DHT22;5805;51.542;7.230;2023-07-08T01:46:12;21.10;94.80
11497;DHT22;5805;51.542;7.230;2023-07-08T01:48:41;21.10;95.30
11497;DHT22;5805;51.542;7.230;2023-07-08T01:51:08;21.10;95.20
11497;DHT22;5805;51.542;7.230;2023-07-08T01:53:36;21.10;95.10
11497;DHT22;5805;51.542;7.230;2023-07-08T01:56:02;21.20;95.10
11497;DHT22;5805;51.542;7.230;2023-07-08T01:58:30;21.30;95.10
11497;DHT22;5805;51.542;7.230;2023-07-08T02:00:55;21.30;95.00
11497;DHT22;5805;51.542;7.230;2023-07-08T02:03:21;21.30;94.80
11497;DHT22;5805;51.542;7.230;2023-07-08T02:05:47;21.30;94.90
11497;DHT22;5805;51.542;7.230;2023-07-08T02:08:13;21.30;94.70
11497;DHT22;5805;51.542;7.230;2023-07-08T02:10:40;21.20;95.00
11497;DHT22;5805;51.542;7.230;2023-07-08T02:13:06;21.20;94.80
11497;DHT22;5805;51.542;7.230;2023-07-08T02:15:33;21.30;95.10
11497;DHT22;5805;51.542;7.230;2023-07-08T02:17:59;21.30;95.30
11497;DHT22;5805;51.542;7.230;2023-07-08T02:20:25;21.20;95.40
11497;DHT22;5805;51.542;7.230;2023-07-08T02:22:50;21.00;95.80
11497;DHT22;5805;51.542;7.230;2023-07-08T02:25:16;20.90;96.30
11497;DHT22;5805;51.542;7.230;2023-07-08T02:27:42;20.80;96.70
11497;DHT22;5805;51.542;7.230;2023-07-08T02:30:09;20.80;96.70
11497;DHT22;5805;51.542;7.230;2023-07-08T02:32:36;20.70;96.90
11497;DHT22;5805;51.542;7.230;2023-07-08T02:35:02;20.70;97.10
11497;DHT22;5805;51.542;7.230;2023-07-08T02:37:28;20.70;97.30
11497;DHT22;5805;51.542;7.230;2023-07-08T02:39:54;20.70;97.40
11497;DHT22;5805;51.542;7.230;2023-07-08T02:42:19;20.70;97.60
11497;DHT22;5805;51.542;7.230;2023-07-08T02:44:45;20.70;97.40
11497;DHT22;5805;51.542;7.230;2023-07-08T02:47:11;20.70;97.60
11497;DHT22;5805;51.542;7.230;2023-07-08T02:49:38;20.70;97.60
11497;DHT22;5805;51.542;7.230;2023-07-08T02:52:04;20.60;97.70
11497;DHT22;5805;51.542;7.230;2023-07-08T02:54:30;20.60;98.40
11497;DHT22;5805;51.542;7.230;2023-07-08T02:56:55;20.50;98.10
11497;DHT22;5805;51.542;7.230;2023-07-08T02:59:21;20.50;98.20
11497;DHT22;5805;51.542;7.230;2023-07-08T03:01:47;20.40;98.60
11497;DHT22;5805;51.542;7.230;2023-07-08T03:04:13;20.40;98.80
11497;DHT22;5805;51.542;7.230;2023-07-08T03:06:42;20.40;99.00
11497;DHT22;5805;51.542;7.230;2023-07-08T03:09:08;20.40;98.80
11497;DHT22;5805;51.542;7.230;2023-07-08T03:11:34;20.40;99.00
11497;DHT22;5805;51.542;7.230;2023-07-08T03:13:59;20.40;99.40
11497;DHT22;5805;51.542;7.230;2023-07-08T03:16:25;20.30;99.30
11497;DHT22;5805;51.542;7.230;2023-07-08T03:18:51;20.30;99.20
11497;DHT22;5805;51.542;7.230;2023-07-08T03:21:17;20.30;99.50
11497;DHT22;5805;51.542;7.230;2023-07-08T03:23:45;20.30;99.50
11497;DHT22;5805;51.542;7.230;2023-07-08T03:26:13;20.30;99.70
11497;DHT22;5805;51.542;7.230;2023-07-08T03:28:39;20.30;99.90
11497;DHT22;5805;51.542;7.230;2023-07-08T03:31:09;20.30;99.90
11497;DHT22;5805;51.542;7.230;2023-07-08T03:33:35;20.30;99.80
11497;DHT22;5805;51.542;7.230;2023-07-08T03:36:01;20.40;99.90
11497;DHT22;5805;51.542;7.230;2023-07-08T03:38:27;20.30;99.90
11497;DHT22;5805;51.542;7.230;2023-07-08T03:40:54;20.30;99.90
11497;DHT22;5805;51.542;7.230;2023-07-08T03:43:20;20.20;99.90
11497;DHT22;5805;51.542;7.230;2023-07-08T03:45:46;20.20;99.90
11497;DHT22;5805;51.542;7.230;2023-07-08T03:48:12;20.20;99.90
11497;DHT22;5805;51.542;7.230;2023-07-08T03:50:38;20.20;99.90
11497;DHT22;5805;51.542;7.230;2023-07-08T03:53:04;20.20;99.90
11497;DHT22;5805;51.542;7.230;2023-07-08T03:55:29;20.30;99.90
11497;DHT22;5805;51.542;7.230;2023-07-08T03:57:57;20.20;99.90
11497;DHT22;5805;51.542;7.230;2023-07-08T04:00:22;20.20;99.90
11497;DHT22;5805;51.542;7.230;2023-07-08T04:02:48;20.20;99.90
11497;DHT22;5805;51.542;7.230;2023-07-08T04:05:14;20.20;99.90
11497;DHT22;5805;51.542;7.230;2023-07-08T04:07:40;20.20;99.90
11497;DHT22;5805;51.542;7.230;2023-07-08T04:10:07;20.30;99.90
11497;DHT22;5805;51.542;7.230;2023-07-08T04:12:33;20.30;99.90
11497;DHT22;5805;51.542;7.230;2023-07-08T04:15:00;20.30;99.90
11497;DHT22;5805;51.542;7.230;2023-07-08T04:17:26;20.40;99.90
11497;DHT22;5805;51.542;7.230;2023-07-08T04:19:51;20.40;99.90
11497;DHT22;5805;51.542;7.230;2023-07-08T04:22:17;20.40;99.90
11497;DHT22;5805;51.542;7.230;2023-07-08T04:24:43;20.30;99.90
11497;DHT22;5805;51.542;7.230;2023-07-08T04:27:12;20.40;99.90
11497;DHT22;5805;51.542;7.230;2023-07-08T04:29:39;20.40;99.90
11497;DHT22;5805;51.542;7.230;2023-07-08T04:32:07;20.30;99.90
11497;DHT22;5805;51.542;7.230;2023-07-08T04:34:32;20.40;99.90
11497;DHT22;5805;51.542;7.230;2023-07-08T04:36:58;20.30;99.90
11497;DHT22;5805;51.542;7.230;2023-07-08T04:39:24;20.40;99.90
11497;DHT22;5805;51.542;7.230;2023-07-08T04:41:50;20.40;99.90
11497;DHT22;5805;51.542;7.230;2023-07-08T04:44:16;20.50;99.90
11497;DHT22;5805;51.542;7.230;2023-07-08T04:46:45;20.50;99.90
11497;DHT22;5805;51.542;7.230;2023-07-08T04:49:13;20.60;99.90
11497;DHT22;5805;51.542;7.230;2023-07-08T04:51:40;20.60;99.90
11497;DHT22;5805;51.542;7.230;2023-07-08T04:54:06;20.60;99.90
11497;DHT22;5805;51.542;7.230;2023-07-08T04:56:36;20.70;99.90
11497;DHT22;5805;51.542;7.230;2023-07-08T04:59:03;20.70;99.90
11497;DHT22;5805;51.542;7.230;2023-07-08T05:01:29;20.90;99.90
11497;DHT22;5805;51.542;7.230;2023-07-08T05:03:54;21.10;99.90
11497;DHT22;5805;51.542;7.230;2023-07-08T05:06:22;21.30;99.50
11497;DHT22;5805;51.542;7.230;2023-07-08T05:08:47;21.50;99.00
11497;DHT22;5805;51.542;7.230;2023-07-08T05:11:13;21.70;98.40
11497;DHT22;5805;51.542;7.230;2023-07-08T05:13:39;21.80;97.80
11497;DHT22;5805;51.542;7.230;2023-07-08T05:16:05;21.90;96.90
11497;DHT22;5805;51.542;7.230;2023-07-08T05:18:30;21.70;97.10
11497;DHT22;5805;51.542;7.230;2023-07-08T05:20:56;21.80;97.40
11497;DHT22;5805;51.542;7.230;2023-07-08T05:23:23;21.70;97.10
11497;DHT22;5805;51.542;7.230;2023-07-08T05:25:49;21.60;97.70
11497;DHT22;5805;51.542;7.230;2023-07-08T05:28:15;21.70;98.30
11497;DHT22;5805;51.542;7.230;2023-07-08T05:30:41;21.70;98.40
11497;DHT22;5805;51.542;7.230;2023-07-08T05:33:06;21.70;98.40
11497;DHT22;5805;51.542;7.230;2023-07-08T05:35:32;21.70;98.50
11497;DHT22;5805;51.542;7.230;2023-07-08T05:37:58;21.80;98.00
11497;DHT22;5805;51.542;7.230;2023-07-08T05:40:25;21.80;98.10
11497;DHT22;5805;51.542;7.230;2023-07-08T05:42:51;21.80;97.70
11497;DHT22;5805;51.542;7.230;2023-07-08T05:45:16;21.80;97.40
11497;DHT22;5805;51.542;7.230;2023-07-08T05:47:42;21.90;97.20
11497;DHT22;5805;51.542;7.230;2023-07-08T05:50:08;21.90;97.60
11497;DHT22;5805;51.542;7.230;2023-07-08T05:52:34;22.00;97.10
11497;DHT22;5805;51.542;7.230;2023-07-08T05:55:00;22.00;97.40
11497;DHT22;5805;51.542;7.230;2023-07-08T05:57:27;22.00;97.10
11497;DHT22;5805;51.542;7.230;2023-07-08T05:59:52;22.10;97.30
11497;DHT22;5805;51.542;7.230;2023-07-08T06:02:18;22.10;97.10
11497;DHT22;5805;51.542;7.230;2023-07-08T06:04:44;22.20;97.30
11497;DHT22;5805;51.542;7.230;2023-07-08T06:07:10;22.40;97.20
11497;DHT22;5805;51.542;7.230;2023-07-08T06:09:35;22.50;96.60
11497;DHT22;5805;51.542;7.230;2023-07-08T06:12:01;22.60;96.40
11497;DHT22;5805;51.542;7.230;2023-07-08T06:14:28;22.80;95.90
11497;DHT22;5805;51.542;7.230;2023-07-08T06:16:54;22.80;96.00
11497;DHT22;5805;51.542;7.230;2023-07-08T06:19:20;22.90;95.80
11497;DHT22;5805;51.542;7.230;2023-07-08T06:21:45;23.00;95.90
11497;DHT22;5805;51.542;7.230;2023-07-08T06:24:11;23.00;95.40
11497;DHT22;5805;51.542;7.230;2023-07-08T06:26:37;23.10;95.60
11497;DHT22;5805;51.542;7.230;2023-07-08T06:29:03;23.20;95.00
11497;DHT22;5805;51.542;7.230;2023-07-08T06:31:30;23.40;94.20
11497;DHT22;5805;51.542;7.230;2023-07-08T06:33:56;23.50;93.80
11497;DHT22;5805;51.542;7.230;2023-07-08T06:36:22;23.50;93.70
11497;DHT22;5805;51.542;7.230;2023-07-08T06:38:48;23.60;93.10
11497;DHT22;5805;51.542;7.230;2023-07-08T06:41:13;23.60;93.00
11497;DHT22;5805;51.542;7.230;2023-07-08T06:43:39;23.70;93.30
11497;DHT22;5805;51.542;7.230;2023-07-08T06:46:05;23.70;93.50
11497;DHT22;5805;51.542;7.230;2023-07-08T06:48:32;23.70;93.30
11497;DHT22;5805;51.542;7.230;2023-07-08T06:50:58;23.80;92.60
11497;DHT22;5805;51.542;7.230;2023-07-08T06:53:24;23.90;92.60
11497;DHT22;5805;51.542;7.230;2023-07-08T06:55:49;24.00;92.40
11497;DHT22;5805;51.542;7.230;2023-07-08T06:58:15;24.20;92.20
11497;DHT22;5805;51.542;7.230;2023-07-08T07:00:42;24.40;91.80
11497;DHT22;5805;51.542;7.230;2023-07-08T07:03:08;24.50;91.40
11497;DHT22;5805;51.542;7.230;2023-07-08T07:05:35;24.60;90.20
11497;DHT22;5805;51.542;7.230;2023-07-08T07:08:00;24.80;89.30
11497;DHT22;5805;51.542;7.230;2023-07-08T07:10:26;24.90;88.30
11497;DHT22;5805;51.542;7.230;2023-07-08T07:12:52;25.10;85.60
11497;DHT22;5805;51.542;7.230;2023-07-08T07:15:18;25.20;84.80
11497;DHT22;5805;51.542;7.230;2023-07-08T07:17:43;25.30;85.00
11497;DHT22;5805;51.542;7.230;2023-07-08T07:20:10;25.40;83.90
11497;DHT22;5805;51.542;7.230;2023-07-08T07:22:37;25.50;80.50
11497;DHT22;5805;51.542;7.230;2023-07-08T07:25:03;25.60;80.50
11497;DHT22;5805;51.542;7.230;2023-07-08T07:27:29;25.60;80.80
11497;DHT22;5805;51.542;7.230;2023-07-08T07:29:55;25.70;80.30
11497;DHT22;5805;51.542;7.230;2023-07-08T07:32:23;25.70;80.50
11497;DHT22;5805;51.542;7.230;2023-07-08T07:34:49;25.70;80.70
11497;DHT22;5805;51.542;7.230;2023-07-08T07:37:17;25.70;80.10
11497;DHT22;5805;51.542;7.230;2023-07-08T07:39:44;25.80;81.80
11497;DHT22;5805;51.542;7.230;2023-07-08T07:42:10;25.80;82.40
11497;DHT22;5805;51.542;7.230;2023-07-08T07:44:36;25.80;82.30
11497;DHT22;5805;51.542;7.230;2023-07-08T07:47:03;25.90;81.80
11497;DHT22;5805;51.542;7.230;2023-07-08T07:49:29;26.00;79.80
11497;DHT22;5805;51.542;7.230;2023-07-08T07:51:55;26.10;80.20
11497;DHT22;5805;51.542;7.230;2023-07-08T07:54:20;26.30;77.60
11497;DHT22;5805;51.542;7.230;2023-07-08T07:56:47;26.30;78.20
11497;DHT22;5805;51.542;7.230;2023-07-08T07:59:13;26.50;77.70
11497;DHT22;5805;51.542;7.230;2023-07-08T08:01:39;26.60;76.80
11497;DHT22;5805;51.542;7.230;2023-07-08T08:04:04;26.80;75.70
11497;DHT22;5805;51.542;7.230;2023-07-08T08:06:30;26.90;74.60
11497;DHT22;5805;51.542;7.230;2023-07-08T08:08:56;27.10;73.10
11497;DHT22;5805;51.542;7.230;2023-07-08T08:11:22;27.30;72.10
11497;DHT22;5805;51.542;7.230;2023-07-08T08:13:49;27.40;71.10
11497;DHT22;5805;51.542;7.230;2023-07-08T08:16:14;27.50;69.70
11497;DHT22;5805;51.542;7.230;2023-07-08T08:18:40;27.60;68.70
11497;DHT22;5805;51.542;7.230;2023-07-08T08:21:06;27.80;65.60
11497;DHT22;5805;51.542;7.230;2023-07-08T08:23:31;28.10;65.20
11497;DHT22;5805;51.542;7.230;2023-07-08T08:25:57;28.20;64.90
11497;DHT22;5805;51.542;7.230;2023-07-08T08:28:23;28.30;63.70
11497;DHT22;5805;51.542;7.230;2023-07-08T08:30:50;28.50;63.20
11497;DHT22;5805;51.542;7.230;2023-07-08T08:33:17;28.70;63.10
11497;DHT22;5805;51.542;7.230;2023-07-08T08:35:43;28.90;63.30
11497;DHT22;5805;51.542;7.230;2023-07-08T08:38:09;29.20;63.70
11497;DHT22;5805;51.542;7.230;2023-07-08T08:40:35;29.70;62.90
11497;DHT22;5805;51.542;7.230;2023-07-08T08:43:03;30.50;61.90
11497;DHT22;5805;51.542;7.230;2023-07-08T08:45:34;32.10;57.90
11497;DHT22;5805;51.542;7.230;2023-07-08T08:48:06;34.20;52.10
11497;DHT22;5805;51.542;7.230;2023-07-08T08:50:41;36.50;45.30
11497;DHT22;5805;51.542;7.230;2023-07-08T08:53:12;38.70;39.10
11497;DHT22;5805;51.542;7.230;2023-07-08T08:55:38;40.20;35.50
11497;DHT22;5805;51.542;7.230;2023-07-08T08:58:13;41.10;33.30
11497;DHT22;5805;51.542;7.230;2023-07-08T09:00:52;42.30;29.80
11497;DHT22;5805;51.542;7.230;2023-07-08T09:03:28;42.80;29.30
11497;DHT22;5805;51.542;7.230;2023-07-08T09:05:58;42.70;28.80
11497;DHT22;5805;51.542;7.230;2023-07-08T09:08:30;41.90;29.50
11497;DHT22;5805;51.542;7.230;2023-07-08T09:11:00;40.90;29.70
11497;DHT22;5805;51.542;7.230;2023-07-08T09:13:30;39.70;30.90
11497;DHT22;5805;51.542;7.230;2023-07-08T09:16:04;38.70;32.60
11497;DHT22;5805;51.542;7.230;2023-07-08T09:18:36;37.90;33.50
11497;DHT22;5805;51.542;7.230;2023-07-08T09:21:13;37.00;33.90
11497;DHT22;5805;51.542;7.230;2023-07-08T09:23:42;36.10;35.50
11497;DHT22;5805;51.542;7.230;2023-07-08T09:26:13;35.70;36.50
11497;DHT22;5805;51.542;7.230;2023-07-08T09:28:40;35.40;37.10
11497;DHT22;5805;51.542;7.230;2023-07-08T09:31:09;35.30;37.70
11497;DHT22;5805;51.542;7.230;2023-07-08T09:33:39;35.20;37.90
11497;DHT22;5805;51.542;7.230;2023-07-08T09:36:16;35.10;38.60
11497;DHT22;5805;51.542;7.230;2023-07-08T09:38:42;34.90;38.20
11497;DHT22;5805;51.542;7.230;2023-07-08T09:41:08;34.50;38.20
11497;DHT22;5805;51.542;7.230;2023-07-08T09:43:37;34.20;38.80
11497;DHT22;5805;51.542;7.230;2023-07-08T09:46:03;33.90;39.80
11497;DHT22;5805;51.542;7.230;2023-07-08T09:48:34;33.60;39.80
11497;DHT22;5805;51.542;7.230;2023-07-08T09:51:02;33.40;40.40
11497;DHT22;5805;51.542;7.230;2023-07-08T09:53:28;33.50;41.40
11497;DHT22;5805;51.542;7.230;2023-07-08T09:55:56;33.60;42.10
11497;DHT22;5805;51.542;7.230;2023-07-08T09:58:25;33.80;40.80
11497;DHT22;5805;51.542;7.230;2023-07-08T10:00:55;33.90;40.40
11497;DHT22;5805;51.542;7.230;2023-07-08T10:03:25;33.90;40.70
11497;DHT22;5805;51.542;7.230;2023-07-08T10:05:53;34.00;40.50
11497;DHT22;5805;51.542;7.230;2023-07-08T10:08:22;34.10;41.00
11497;DHT22;5805;51.542;7.230;2023-07-08T10:10:54;34.20;38.20
11497;DHT22;5805;51.542;7.230;2023-07-08T10:13:26;34.30;37.70
11497;DHT22;5805;51.542;7.230;2023-07-08T10:15:56;34.40;37.40
11497;DHT22;5805;51.542;7.230;2023-07-08T10:18:26;34.40;36.40
11497;DHT22;5805;51.542;7.230;2023-07-08T10:21:00;34.50;35.10
11497;DHT22;5805;51.542;7.230;2023-07-08T10:23:38;34.60;34.70
11497;DHT22;5805;51.542;7.230;2023-07-08T10:26:14;34.60;33.60
11497;DHT22;5805;51.542;7.230;2023-07-08T10:31:32;34.80;33.10
11497;DHT22;5805;51.542;7.230;2023-07-08T10:34:10;34.80;33.50
11497;DHT22;5805;51.542;7.230;2023-07-08T10:36:46;34.80;33.40
11497;DHT22;5805;51.542;7.230;2023-07-08T10:39:47;34.80;33.10
11497;DHT22;5805;51.542;7.230;2023-07-08T10:42:24;34.90;33.50
11497;DHT22;5805;51.542;7.230;2023-07-08T10:44:58;34.90;32.90
11497;DHT22;5805;51.542;7.230;2023-07-08T10:47:36;35.00;33.20
11497;DHT22;5805;51.542;7.230;2023-07-08T10:50:20;35.10;33.00
11497;DHT22;5805;51.542;7.230;2023-07-08T10:52:55;35.10;32.40
11497;DHT22;5805;51.542;7.230;2023-07-08T10:55:32;35.10;31.80
11497;DHT22;5805;51.542;7.230;2023-07-08T10:58:29;35.10;32.40
11497;DHT22;5805;51.542;7.230;2023-07-08T11:01:05;35.20;32.50
11497;DHT22;5805;51.542;7.230;2023-07-08T11:03:52;35.30;33.30
11497;DHT22;5805;51.542;7.230;2023-07-08T11:06:26;35.30;32.60
11497;DHT22;5805;51.542;7.230;2023-07-08T11:08:55;35.40;32.90
11497;DHT22;5805;51.542;7.230;2023-07-08T11:11:32;35.40;32.10
11497;DHT22;5805;51.542;7.230;2023-07-08T11:14:04;35.40;31.60
11497;DHT22;5805;51.542;7.230;2023-07-08T11:16:35;35.40;30.90
11497;DHT22;5805;51.542;7.230;2023-07-08T11:19:04;35.30;31.60
11497;DHT22;5805;51.542;7.230;2023-07-08T11:21:37;35.40;32.20
11497;DHT22;5805;51.542;7.230;2023-07-08T11:24:06;35.40;32.30
11497;DHT22;5805;51.542;7.230;2023-07-08T11:26:42;35.40;32.20
11497;DHT22;5805;51.542;7.230;2023-07-08T11:29:14;35.40;32.20
11497;DHT22;5805;51.542;7.230;2023-07-08T11:31:41;35.40;32.60
11497;DHT22;5805;51.542;7.230;2023-07-08T11:34:08;35.50;32.60
11497;DHT22;5805;51.542;7.230;2023-07-08T11:36:36;35.50;32.10
11497;DHT22;5805;51.542;7.230;2023-07-08T11:39:04;35.60;31.40
11497;DHT22;5805;51.542;7.230;2023-07-08T11:41:53;35.60;32.30
11497;DHT22;5805;51.542;7.230;2023-07-08T11:44:28;35.60;32.50
11497;DHT22;5805;51.542;7.230;2023-07-08T11:46:55;35.70;32.10
11497;DHT22;5805;51.542;7.230;2023-07-08T11:49:21;35.70;31.40
11497;DHT22;5805;51.542;7.230;2023-07-08T11:51:48;35.70;31.40
11497;DHT22;5805;51.542;7.230;2023-07-08T11:54:20;35.70;31.40
11497;DHT22;5805;51.542;7.230;2023-07-08T11:57:00;35.70;31.60
11497;DHT22;5805;51.542;7.230;2023-07-08T11:59:30;35.70;32.20
11497;DHT22;5805;51.542;7.230;2023-07-08T12:02:02;35.70;31.60
11497;DHT22;5805;51.542;7.230;2023-07-08T12:04:30;35.70;30.80
11497;DHT22;5805;51.542;7.230;2023-07-08T12:07:09;35.70;31.20
11497;DHT22;5805;51.542;7.230;2023-07-08T12:09:37;35.70;30.60
11497;DHT22;5805;51.542;7.230;2023-07-08T12:12:07;35.70;30.80
11497;DHT22;5805;51.542;7.230;2023-07-08T12:14:36;35.80;31.20
11497;DHT22;5805;51.542;7.230;2023-07-08T12:17:04;35.80;32.00
11497;DHT22;5805;51.542;7.230;2023-07-08T12:19:30;35.80;32.00
11497;DHT22;5805;51.542;7.230;2023-07-08T12:21:56;35.80;31.30
11497;DHT22;5805;51.542;7.230;2023-07-08T12:24:22;35.80;31.20
11497;DHT22;5805;51.542;7.230;2023-07-08T12:26:48;35.80;31.60
11497;DHT22;5805;51.542;7.230;2023-07-08T12:29:15;35.80;31.60
11497;DHT22;5805;51.542;7.230;2023-07-08T12:31:41;35.80;31.40
11497;DHT22;5805;51.542;7.230;2023-07-08T12:34:13;35.80;30.50
11497;DHT22;5805;51.542;7.230;2023-07-08T12:36:39;35.80;30.50
11497;DHT22;5805;51.542;7.230;2023-07-08T12:39:05;35.70;30.40
11497;DHT22;5805;51.542;7.230;2023-07-08T12:41:33;35.70;31.10
11497;DHT22;5805;51.542;7.230;2023-07-08T12:44:00;35.70;30.90
11497;DHT22;5805;51.542;7.230;2023-07-08T12:46:28;35.70;31.50
11497;DHT22;5805;51.542;7.230;2023-07-08T12:48:53;35.70;30.60
11497;DHT22;5805;51.542;7.230;2023-07-08T12:51:21;35.70;30.10
11497;DHT22;5805;51.542;7.230;2023-07-08T12:53:48;35.70;30.00
11497;DHT22;5805;51.542;7.230;2023-07-08T12:56:14;35.70;30.40
11497;DHT22;5805;51.542;7.230;2023-07-08T12:58:42;35.80;30.20
11497;DHT22;5805;51.542;7.230;2023-07-08T13:01:12;35.80;30.50
11497;DHT22;5805;51.542;7.230;2023-07-08T13:03:43;35.80;30.40
11497;DHT22;5805;51.542;7.230;2023-07-08T13:06:11;35.70;30.10
11497;DHT22;5805;51.542;7.230;2023-07-08T13:08:38;35.70;30.20
11497;DHT22;5805;51.542;7.230;2023-07-08T13:11:05;35.70;30.40
11497;DHT22;5805;51.542;7.230;2023-07-08T13:13:34;35.70;30.80
11497;DHT22;5805;51.542;7.230;2023-07-08T13:16:01;35.70;30.10
11497;DHT22;5805;51.542;7.230;2023-07-08T13:18:31;35.60;29.70
11497;DHT22;5805;51.542;7.230;2023-07-08T13:20:59;35.60;29.80
11497;DHT22;5805;51.542;7.230;2023-07-08T13:23:26;35.50;30.40
11497;DHT22;5805;51.542;7.230;2023-07-08T13:25:53;35.50;29.70
11497;DHT22;5805;51.542;7.230;2023-07-08T13:28:23;35.50;30.00
11497;DHT22;5805;51.542;7.230;2023-07-08T13:30:51;35.50;30.30
11497;DHT22;5805;51.542;7.230;2023-07-08T13:33:17;35.40;30.50
11497;DHT22;5805;51.542;7.230;2023-07-08T13:35:44;35.40;30.20
11497;DHT22;5805;51.542;7.230;2023-07-08T13:38:15;35.30;30.70
11497;DHT22;5805;51.542;7.230;2023-07-08T13:40:44;35.30;29.70
11497;DHT22;5805;51.542;7.230;2023-07-08T13:43:10;35.20;29.70
11497;DHT22;5805;51.542;7.230;2023-07-08T13:45:36;35.20;29.90
11497;DHT22;5805;51.542;7.230;2023-07-08T13:48:11;35.10;30.60
11497;DHT22;5805;51.542;7.230;2023-07-08T13:50:45;35.10;30.30
11497;DHT22;5805;51.542;7.230;2023-07-08T13:53:22;35.10;29.90
11497;DHT22;5805;51.542;7.230;2023-07-08T13:55:55;35.00;30.30
11497;DHT22;5805;51.542;7.230;2023-07-08T13:58:26;34.90;30.80
11497;DHT22;5805;51.542;7.230;2023-07-08T14:00:52;34.80;30.70
11497;DHT22;5805;51.542;7.230;2023-07-08T14:03:19;34.80;30.70
11497;DHT22;5805;51.542;7.230;2023-07-08T14:05:45;34.70;30.50
11497;DHT22;5805;51.542;7.230;2023-07-08T14:08:13;34.70;30.50
11497;DHT22;5805;51.542;7.230;2023-07-08T14:10:41;34.70;31.00
11497;DHT22;5805;51.542;7.230;2023-07-08T14:13:07;34.70;31.10
11497;DHT22;5805;51.542;7.230;2023-07-08T14:15:33;34.70;30.70
11497;DHT22;5805;51.542;7.230;2023-07-08T14:18:00;34.70;30.50
11497;DHT22;5805;51.542;7.230;2023-07-08T14:20:26;34.70;30.50
11497;DHT22;5805;51.542;7.230;2023-07-08T14:22:52;34.60;30.60
11497;DHT22;5805;51.542;7.230;2023-07-08T14:25:17;34.50;31.40
11497;DHT22;5805;51.542;7.230;2023-07-08T14:27:44;34.50;31.20
11497;DHT22;5805;51.542;7.230;2023-07-08T14:30:11;34.40;30.90
11497;DHT22;5805;51.542;7.230;2023-07-08T14:32:37;34.30;30.30
11497;DHT22;5805;51.542;7.230;2023-07-08T14:35:16;34.10;30.70
11497;DHT22;5805;51.542;7.230;2023-07-08T14:37:42;34.00;30.70
11497;DHT22;5805;51.542;7.230;2023-07-08T14:40:20;34.00;30.90
11497;DHT22;5805;51.542;7.230;2023-07-08T14:42:47;34.00;31.30
11497;DHT22;5805;51.542;7.230;2023-07-08T14:45:13;34.00;31.60
11497;DHT22;5805;51.542;7.230;2023-07-08T14:47:39;34.00;32.10
11497;DHT22;5805;51.542;7.230;2023-07-08T14:50:12;33.90;31.80
11497;DHT22;5805;51.542;7.230;2023-07-08T14:52:38;33.80;31.70
11497;DHT22;5805;51.542;7.230;2023-07-08T14:55:04;33.80;31.50
11497;DHT22;5805;51.542;7.230;2023-07-08T14:57:32;33.80;31.40
11497;DHT22;5805;51.542;7.230;2023-07-08T15:00:01;33.70;31.40
11497;DHT22;5805;51.542;7.230;2023-07-08T15:02:27;33.60;31.30
11497;DHT22;5805;51.542;7.230;2023-07-08T15:04:53;33.70;31.40
11497;DHT22;5805;51.542;7.230;2023-07-08T15:07:18;33.60;31.80
11497;DHT22;5805;51.542;7.230;2023-07-08T15:09:44;33.70;33.00
11497;DHT22;5805;51.542;7.230;2023-07-08T15:12:10;33.70;32.80
11497;DHT22;5805;51.542;7.230;2023-07-08T15:14:36;33.70;32.60
11497;DHT22;5805;51.542;7.230;2023-07-08T15:17:09;33.70;32.40
11497;DHT22;5805;51.542;7.230;2023-07-08T15:19:35;33.70;31.60
11497;DHT22;5805;51.542;7.230;2023-07-08T15:22:01;33.70;31.60
11497;DHT22;5805;51.542;7.230;2023-07-08T15:24:26;33.70;32.20
11497;DHT22;5805;51.542;7.230;2023-07-08T15:26:52;33.70;32.90
11497;DHT22;5805;51.542;7.230;2023-07-08T15:29:20;33.70;33.30
11497;DHT22;5805;51.542;7.230;2023-07-08T15:31:46;33.70;32.50
11497;DHT22;5805;51.542;7.230;2023-07-08T15:34:16;33.70;32.60
11497;DHT22;5805;51.542;7.230;2023-07-08T15:36:42;33.70;33.00
11497;DHT22;5805;51.542;7.230;2023-07-08T15:39:08;33.70;32.20
11497;DHT22;5805;51.542;7.230;2023-07-08T15:41:33;33.70;32.00
11497;DHT22;5805;51.542;7.230;2023-07-08T15:43:59;33.50;32.00
11497;DHT22;5805;51.542;7.230;2023-07-08T15:46:29;33.30;32.40
11497;DHT22;5805;51.542;7.230;2023-07-08T15:48:56;33.20;32.40
11497;DHT22;5805;51.542;7.230;2023-07-08T15:51:23;33.10;32.50